createdAt,value
2024-01-26T00:02:06.302Z,64.46
2024-01-26T00:07:08.810Z,64.80
2024-01-26T00:12:11.329Z,64.94
2024-01-26T00:17:13.608Z,65.36
2024-01-26T00:22:15.791Z,65.59
2024-01-26T00:27:18.198Z,65.17
2024-01-26T00:32:20.469Z,65.27
2024-01-26T00:37:22.747Z,64.78
2024-01-26T00:42:25.026Z,65.76
2024-01-26T00:47:27.392Z,65.70
2024-01-26T00:52:29.680Z,65.77
2024-01-26T00:57:32.181Z,65.27
2024-01-26T01:02:35.470Z,65.80
2024-01-26T01:07:37.711Z,65.55
2024-01-26T01:12:40.867Z,65.94
2024-01-26T01:17:44.546Z,65.04
2024-01-26T01:22:46.833Z,64.81
2024-01-26T01:27:49.689Z,64.53
2024-01-26T01:32:52.207Z,65.40
2024-01-26T01:37:54.489Z,64.42
2024-01-26T01:42:56.736Z,65.05
2024-01-26T01:47:59.101Z,65.75
2024-01-26T01:53:06.116Z,64.91
2024-01-26T01:58:08.604Z,64.83
2024-01-26T02:03:11.158Z,64.63
2024-01-26T02:08:13.645Z,64.82
2024-01-26T02:13:15.971Z,64.91
2024-01-26T02:18:18.425Z,65.13
2024-01-26T02:23:24.863Z,64.70
2024-01-26T02:28:27.242Z,64.97
2024-01-26T02:33:29.601Z,64.67
2024-01-26T02:38:31.961Z,65.03
2024-01-26T02:43:34.300Z,65.40
2024-01-26T02:48:36.657Z,65.09
2024-01-26T02:53:42.959Z,65.25
2024-01-26T02:58:45.323Z,65.52
2024-01-26T03:03:47.614Z,65.23
2024-01-26T03:08:49.939Z,64.71
2024-01-26T03:13:53.195Z,64.48
2024-01-26T03:18:55.737Z,64.94
2024-01-26T03:23:58.194Z,65.60
2024-01-26T03:29:00.510Z,65.19
2024-01-26T03:34:03.188Z,65.10
2024-01-26T03:39:05.689Z,64.84
2024-01-26T03:44:08.462Z,64.89
2024-01-26T03:49:10.924Z,65.08
2024-01-26T03:54:13.353Z,64.48
2024-01-26T03:59:15.664Z,65.32
2024-01-26T04:04:18.114Z,64.41
2024-01-26T04:09:20.428Z,64.90
2024-01-26T04:14:22.795Z,65.02
2024-01-26T04:19:25.113Z,65.34
2024-01-26T04:24:27.708Z,64.77
2024-01-26T04:29:30.253Z,65.29
2024-01-26T04:34:32.776Z,65.02
2024-01-26T04:39:35.442Z,64.90
2024-01-26T04:44:37.835Z,65.23
2024-01-26T04:49:40.285Z,64.43
2024-01-26T04:54:42.634Z,64.66
2024-01-26T04:59:45.122Z,64.65
2024-01-26T05:04:47.511Z,64.96
2024-01-26T05:09:49.780Z,64.76
2024-01-26T05:14:52.060Z,65.28
2024-01-26T05:19:54.608Z,64.92
2024-01-26T05:24:57.055Z,65.10
2024-01-26T05:30:00.216Z,65.30
2024-01-26T05:35:02.718Z,65.33
2024-01-26T05:40:07.960Z,64.71
2024-01-26T05:45:10.767Z,64.43
2024-01-26T05:50:13.389Z,64.89
2024-01-26T05:55:16.218Z,64.59
2024-01-26T06:00:19.119Z,64.67
2024-01-26T06:05:21.797Z,64.54
2024-01-26T06:10:24.146Z,64.90
2024-01-26T06:15:26.499Z,64.75
2024-01-26T06:20:32.762Z,64.83
2024-01-26T06:25:35.377Z,64.51
2024-01-26T06:30:37.678Z,63.69
2024-01-26T06:35:40.081Z,64.68
2024-01-26T06:40:43.624Z,64.02
2024-01-26T06:45:45.951Z,63.98
2024-01-26T06:50:48.243Z,63.67
2024-01-26T06:55:53.697Z,63.06
2024-01-26T07:00:56.221Z,63.24
2024-01-26T07:05:58.649Z,63.46
2024-01-26T07:11:01.702Z,63.77
2024-01-26T07:16:22.863Z,62.99
2024-01-26T07:21:25.213Z,62.83
2024-01-26T07:26:27.518Z,62.85
2024-01-26T07:31:29.759Z,62.64
2024-01-26T07:36:32.835Z,62.78
2024-01-26T07:41:35.270Z,62.03
2024-01-26T07:46:40.026Z,62.42
2024-01-26T07:51:42.376Z,62.55
2024-01-26T07:56:44.741Z,61.54
2024-01-26T08:01:47.066Z,61.42
2024-01-26T08:06:49.434Z,61.33
2024-01-26T08:11:51.924Z,61.14
2024-01-26T08:16:57.621Z,61.50
2024-01-26T08:22:00.144Z,61.54
2024-01-26T08:27:03.026Z,61.26
2024-01-26T08:32:05.586Z,60.84
2024-01-26T08:37:08.001Z,60.45
2024-01-26T08:42:10.371Z,60.22
2024-01-26T08:47:12.808Z,60.49
2024-01-26T08:52:15.205Z,59.62
2024-01-26T08:57:17.509Z,59.38
2024-01-26T09:02:19.795Z,59.82
2024-01-26T09:07:24.330Z,60.68
2024-01-26T09:12:26.688Z,60.11
2024-01-26T09:17:29.162Z,60.16
2024-01-26T09:22:32.125Z,59.88
2024-01-26T09:27:52.857Z,59.38
2024-01-26T09:32:55.354Z,60.59
2024-01-26T09:37:57.859Z,60.75
2024-01-26T09:43:00.291Z,60.39
2024-01-26T09:48:06.613Z,59.17
2024-01-26T09:53:12.832Z,60.33
2024-01-26T09:58:16.317Z,60.70
2024-01-26T10:03:20.322Z,59.41
2024-01-26T10:08:23.177Z,60.01
2024-01-26T10:13:25.544Z,59.82
2024-01-26T10:18:43.736Z,59.97
2024-01-26T10:23:48.150Z,59.30
2024-01-26T10:28:51.975Z,59.69
2024-01-26T10:33:57.271Z,61.28
2024-01-26T10:39:02.293Z,60.52
2024-01-26T10:44:06.396Z,60.58
2024-01-26T10:49:11.291Z,59.66
2024-01-26T10:54:14.275Z,58.38
2024-01-26T10:59:18.676Z,58.42
2024-01-26T11:04:21.069Z,58.71
2024-01-26T11:09:24.266Z,58.55
2024-01-26T11:14:32.616Z,58.29
2024-01-26T11:19:35.009Z,59.33
2024-01-26T11:24:37.529Z,59.43
2024-01-26T11:29:40.580Z,58.68
2024-01-26T11:34:43.038Z,60.26
2024-01-26T11:39:45.576Z,58.99
2024-01-26T11:45:10.214Z,59.54
2024-01-26T11:50:13.197Z,59.83
2024-01-26T11:55:16.424Z,58.44
2024-01-26T12:00:20.362Z,57.77
2024-01-26T12:05:22.827Z,59.21
2024-01-26T12:10:26.263Z,59.51
2024-01-26T12:15:32.576Z,59.74
2024-01-26T12:20:35.864Z,59.91
2024-01-26T12:25:38.193Z,60.11
2024-01-26T12:30:40.828Z,59.02
2024-01-26T12:35:43.583Z,59.05
2024-01-26T12:40:46.462Z,59.97
2024-01-26T12:45:48.811Z,60.07
2024-01-26T12:50:51.390Z,60.02
2024-01-26T12:55:53.694Z,60.13
2024-01-26T13:00:56.629Z,60.17
2024-01-26T13:05:59.217Z,61.00
2024-01-26T13:11:01.561Z,60.81
2024-01-26T13:16:03.926Z,60.34
2024-01-26T13:21:06.493Z,60.39
2024-01-26T13:26:09.132Z,60.73
2024-01-26T13:31:11.849Z,60.62
2024-01-26T13:36:14.263Z,60.33
2024-01-26T13:41:17.672Z,61.37
2024-01-26T13:46:22.879Z,61.38
2024-01-26T13:51:25.294Z,61.16
2024-01-26T13:56:28.254Z,61.50
2024-01-26T14:01:30.655Z,61.52
2024-01-26T14:06:34.778Z,60.83
2024-01-26T14:11:38.001Z,61.60
2024-01-26T14:16:40.455Z,61.69
2024-01-26T14:21:45.527Z,61.32
2024-01-26T14:26:48.513Z,62.14
2024-01-26T14:31:53.512Z,61.79
2024-01-26T14:36:58.632Z,62.06
2024-01-26T14:42:00.968Z,61.68
2024-01-26T14:47:04.414Z,62.17
2024-01-26T14:52:07.019Z,62.22
2024-01-26T14:57:09.348Z,62.30
2024-01-26T15:02:12.143Z,62.48
2024-01-26T15:07:14.527Z,61.66
2024-01-26T15:12:16.823Z,62.14
2024-01-26T15:17:19.318Z,61.65
2024-01-26T15:22:21.585Z,62.09
2024-01-26T15:27:26.113Z,61.25
2024-01-26T15:32:30.555Z,61.70
2024-01-26T15:37:33.014Z,61.02
2024-01-26T15:42:35.402Z,61.95
2024-01-26T15:47:40.273Z,62.02
2024-01-26T15:52:46.426Z,61.89
2024-01-26T15:57:49.813Z,61.95
2024-01-26T16:02:52.310Z,62.21
2024-01-26T16:07:54.635Z,62.05
2024-01-26T16:12:56.870Z,61.64
2024-01-26T16:17:59.225Z,61.94
2024-01-26T16:23:01.753Z,61.67
2024-01-26T16:28:04.321Z,61.57
2024-01-26T16:33:06.858Z,60.91
2024-01-26T16:38:09.256Z,61.26
2024-01-26T16:43:12.824Z,62.15
2024-01-26T16:48:15.237Z,61.83
2024-01-26T16:53:17.597Z,61.68
2024-01-26T16:58:19.943Z,61.73
2024-01-26T17:03:22.528Z,62.30
2024-01-26T17:08:28.823Z,61.74
2024-01-26T17:13:31.322Z,61.93
2024-01-26T17:18:33.969Z,61.71
2024-01-26T17:23:37.450Z,62.34
2024-01-26T17:28:39.856Z,62.05
2024-01-26T17:33:42.278Z,62.31
2024-01-26T17:38:44.671Z,62.55
2024-01-26T17:43:47.018Z,62.13
2024-01-26T17:48:49.555Z,62.00
2024-01-26T17:53:51.909Z,62.29
2024-01-26T17:58:54.158Z,62.15
2024-01-26T18:03:56.670Z,62.31
2024-01-26T18:08:59.181Z,62.17
2024-01-26T18:14:02.191Z,62.08
2024-01-26T18:19:05.153Z,61.42
2024-01-26T18:24:07.698Z,62.29
2024-01-26T18:29:10.086Z,62.22
2024-01-26T18:34:12.489Z,61.32
2024-01-26T18:39:14.869Z,61.70
2024-01-26T18:44:17.534Z,61.64
2024-01-26T18:49:20.290Z,62.09
2024-01-26T18:54:23.410Z,62.11
2024-01-26T18:59:28.987Z,62.16
2024-01-26T19:04:33.187Z,62.47
2024-01-26T19:09:37.179Z,62.00
2024-01-26T19:14:40.987Z,61.88
2024-01-26T19:19:46.608Z,62.04
2024-01-26T19:24:49.345Z,62.39
2024-01-26T19:29:51.824Z,62.23
2024-01-26T19:34:54.150Z,62.38
2024-01-26T19:39:58.648Z,62.19
2024-01-26T19:45:01.084Z,61.86
2024-01-26T19:50:09.295Z,62.58
2024-01-26T19:55:12.487Z,62.25
2024-01-26T20:00:15.986Z,61.39
2024-01-26T20:05:18.792Z,61.64
2024-01-26T20:10:21.220Z,62.12
2024-01-26T20:15:23.489Z,61.96
2024-01-26T20:20:25.820Z,61.84
2024-01-26T20:25:28.403Z,61.67
2024-01-26T20:30:31.264Z,61.93
2024-01-26T20:35:33.890Z,61.36
2024-01-26T20:40:36.205Z,61.71
2024-01-26T20:45:41.890Z,61.57
2024-01-26T20:50:44.304Z,62.01
2024-01-26T20:55:46.666Z,62.14
2024-01-26T21:00:49.141Z,62.00
2024-01-26T21:05:51.791Z,61.74
2024-01-26T21:10:54.321Z,61.77
2024-01-26T21:15:57.005Z,60.96
2024-01-26T21:20:59.340Z,61.64
2024-01-26T21:26:03.226Z,61.14
2024-01-26T21:31:06.730Z,61.22
2024-01-26T21:36:09.568Z,61.42
2024-01-26T21:41:12.146Z,61.27
2024-01-26T21:46:14.362Z,60.98
2024-01-26T21:51:17.273Z,61.20
2024-01-26T21:56:20.176Z,61.18
2024-01-26T22:01:22.460Z,60.62
2024-01-26T22:06:25.521Z,61.23
2024-01-26T22:11:29.129Z,61.30
2024-01-26T22:16:32.454Z,61.51
2024-01-26T22:21:34.780Z,61.67
2024-01-26T22:26:37.061Z,61.82
2024-01-26T22:31:39.381Z,61.66
2024-01-26T22:36:42.215Z,61.58
2024-01-26T22:41:44.535Z,61.57
2024-01-26T22:46:46.884Z,61.83
2024-01-26T22:51:49.170Z,61.60
2024-01-26T22:56:51.402Z,62.38
2024-01-26T23:01:53.715Z,61.94
2024-01-26T23:06:56.078Z,62.07
2024-01-26T23:11:58.428Z,62.68
2024-01-26T23:17:00.739Z,62.55
2024-01-26T23:22:03.094Z,61.97
2024-01-26T23:27:05.774Z,61.78
2024-01-26T23:32:08.138Z,62.30
2024-01-26T23:37:11.211Z,62.42
2024-01-26T23:42:13.635Z,62.40
2024-01-26T23:47:15.892Z,62.38
2024-01-26T23:52:18.112Z,62.09
2024-01-26T23:57:20.584Z,62.17
